createdAt,value
2023-01-26T00:03:59.383Z,21.95
2023-01-26T00:10:02.805Z,20.73
2023-01-26T00:16:06.934Z,20.77
2023-01-26T00:22:12.039Z,20.55
2023-01-26T00:28:15.423Z,15.52
2023-01-26T00:34:19.076Z,17.63
2023-01-26T00:40:23.874Z,18.08
2023-01-26T00:46:27.344Z,19.08
2023-01-26T00:52:30.769Z,18.38
2023-01-26T00:58:35.636Z,17.95
2023-01-26T01:04:39.288Z,19.08
2023-01-26T01:10:42.880Z,18.13
2023-01-26T01:16:47.700Z,18.88
2023-01-26T01:22:52.684Z,17.98
2023-01-26T01:28:57.626Z,15.73
2023-01-26T01:35:02.426Z,17.20
2023-01-26T01:41:06.018Z,17.08
2023-01-26T01:47:14.091Z,16.70
2023-01-26T01:53:24.636Z,17.38
2023-01-26T01:59:28.117Z,16.42
2023-01-26T02:05:35.054Z,15.77
2023-01-26T02:11:41.352Z,16.85
2023-01-26T02:17:45.365Z,17.67
2023-01-26T02:24:06.529Z,16.00
2023-01-26T02:30:13.109Z,17.48
2023-01-26T02:36:19.589Z,19.80
2023-01-26T02:42:42.125Z,17.35
2023-01-26T02:49:04.753Z,16.67
2023-01-26T02:55:25.293Z,16.35
2023-01-26T03:01:31.031Z,15.73
2023-01-26T03:07:37.241Z,16.98
2023-01-26T03:13:40.756Z,17.63
2023-01-26T03:20:01.672Z,17.52
2023-01-26T03:26:24.406Z,17.58
2023-01-26T03:32:27.897Z,16.70
2023-01-26T03:38:31.418Z,16.02
2023-01-26T03:44:54.150Z,15.90
2023-01-26T03:51:15.123Z,16.38
2023-01-26T03:57:18.567Z,16.02
2023-01-26T04:03:41.140Z,16.38
2023-01-26T04:09:44.510Z,17.05
2023-01-26T04:16:07.148Z,16.92
2023-01-26T04:22:14.586Z,16.42
2023-01-26T04:28:18.077Z,16.98
2023-01-26T04:34:21.941Z,17.20
2023-01-26T04:40:26.806Z,17.83
2023-01-26T04:46:30.220Z,17.65
2023-01-26T04:52:33.588Z,18.08
2023-01-26T04:58:38.455Z,17.42
2023-01-26T05:04:42.111Z,18.52
2023-01-26T05:10:45.973Z,18.73
2023-01-26T05:16:50.768Z,17.70
2023-01-26T05:22:54.350Z,16.63
2023-01-26T05:28:58.132Z,19.10
2023-01-26T05:35:03.036Z,18.08
2023-01-26T05:41:08.334Z,17.88
2023-01-26T05:47:12.541Z,18.25
2023-01-26T05:53:17.438Z,17.95
2023-01-26T05:59:21.039Z,19.98
2023-01-26T06:05:24.434Z,19.27
2023-01-26T06:11:29.528Z,11.75
2023-01-26T06:17:32.919Z,6.88
2023-01-26T06:23:36.577Z,6.35
2023-01-26T06:29:42.045Z,4.40
2023-01-26T06:35:45.420Z,3.53
2023-01-26T06:41:48.904Z,4.75
2023-01-26T06:47:53.911Z,8.07
2023-01-26T06:53:57.789Z,8.77
2023-01-26T07:00:01.351Z,9.75
2023-01-26T07:06:08.004Z,10.55
2023-01-26T07:12:11.752Z,9.88
2023-01-26T07:18:15.140Z,11.23
2023-01-26T07:24:21.949Z,12.13
2023-01-26T07:30:25.548Z,11.18
2023-01-26T07:36:28.960Z,10.95
2023-01-26T07:42:33.979Z,10.77
2023-01-26T07:48:37.432Z,10.45
2023-01-26T07:54:41.045Z,10.65
2023-01-26T08:00:47.232Z,11.30
2023-01-26T08:06:52.809Z,8.88
2023-01-26T08:12:56.440Z,8.93
2023-01-26T08:19:01.588Z,6.22
2023-01-26T08:25:05.496Z,4.22
2023-01-26T08:31:11.523Z,4.00
2023-01-26T08:37:16.404Z,3.53
2023-01-26T08:43:19.776Z,4.10
2023-01-26T08:49:23.134Z,3.42
2023-01-26T08:55:28.617Z,3.55
2023-01-26T09:01:32.181Z,3.30
2023-01-26T09:07:35.685Z,4.07
2023-01-26T09:13:40.736Z,3.70
2023-01-26T09:19:45.089Z,3.78
2023-01-26T09:25:48.524Z,2.75
2023-01-26T09:31:53.378Z,2.38
2023-01-26T09:37:57.053Z,2.78
2023-01-26T09:44:03.977Z,2.10
2023-01-26T09:50:12.344Z,2.50
2023-01-26T09:56:18.659Z,3.13
2023-01-26T10:02:30.585Z,3.03
2023-01-26T10:08:35.449Z,2.88
2023-01-26T10:14:40.938Z,3.03
2023-01-26T10:20:47.389Z,2.65
2023-01-26T10:26:52.820Z,2.72
2023-01-26T10:32:56.630Z,2.58
2023-01-26T10:39:05.914Z,2.28
2023-01-26T10:45:26.979Z,2.45
2023-01-26T10:51:31.465Z,2.38
2023-01-26T10:57:39.156Z,2.53
2023-01-26T11:03:44.425Z,2.33
2023-01-26T11:09:48.300Z,2.83
2023-01-26T11:15:53.075Z,1.70
2023-01-26T11:22:00.677Z,2.28
2023-01-26T11:28:11.656Z,2.92
2023-01-26T11:34:21.895Z,2.38
2023-01-26T11:40:33.644Z,1.92
2023-01-26T11:46:43.242Z,1.80
2023-01-26T11:52:50.627Z,2.08
2023-01-26T11:58:59.417Z,2.63
2023-01-26T12:05:05.991Z,1.92
2023-01-26T12:11:26.554Z,1.75
2023-01-26T12:17:34.231Z,2.58
2023-01-26T12:23:40.624Z,1.70
2023-01-26T12:29:49.027Z,1.90
2023-01-26T12:36:13.161Z,1.52
2023-01-26T12:42:22.406Z,2.08
2023-01-26T12:48:27.987Z,2.05
2023-01-26T12:54:35.569Z,1.85
2023-01-26T13:00:40.777Z,2.15
2023-01-26T13:06:44.406Z,1.45
2023-01-26T13:12:48.838Z,1.58
2023-01-26T13:18:54.156Z,1.52
2023-01-26T13:24:58.599Z,2.03
2023-01-26T13:31:05.261Z,1.40
2023-01-26T13:37:11.693Z,2.17
2023-01-26T13:43:26.704Z,2.00
2023-01-26T13:49:39.016Z,2.38
2023-01-26T13:55:44.576Z,1.63
2023-01-26T14:01:49.167Z,2.00
2023-01-26T14:07:52.630Z,2.50
2023-01-26T14:13:59.069Z,2.33
2023-01-26T14:20:03.820Z,1.70
2023-01-26T14:26:08.445Z,1.75
2023-01-26T14:32:17.085Z,1.70
2023-01-26T14:38:20.492Z,1.30
2023-01-26T14:44:23.914Z,1.58
2023-01-26T14:50:30.784Z,1.55
2023-01-26T14:56:35.974Z,1.15
2023-01-26T15:02:40.932Z,2.55
2023-01-26T15:08:55.723Z,1.35
2023-01-26T15:14:59.938Z,1.40
2023-01-26T15:21:12.058Z,1.50
2023-01-26T15:27:16.910Z,1.20
2023-01-26T15:33:38.810Z,2.78
2023-01-26T15:39:43.641Z,1.63
2023-01-26T15:45:51.959Z,2.45
2023-01-26T15:51:55.523Z,2.13
2023-01-26T15:57:58.913Z,2.53
2023-01-26T16:04:03.732Z,1.90
2023-01-26T16:10:07.593Z,1.23
2023-01-26T16:16:11.587Z,1.52
2023-01-26T16:22:16.625Z,1.70
2023-01-26T16:28:20.171Z,2.00
2023-01-26T16:34:23.593Z,1.90
2023-01-26T16:40:29.812Z,2.90
2023-01-26T16:46:34.631Z,7.95
2023-01-26T16:52:38.362Z,3.80
2023-01-26T16:58:43.154Z,1.98
2023-01-26T17:04:46.670Z,3.70
2023-01-26T17:11:01.460Z,1.92
2023-01-26T17:17:06.703Z,2.10
2023-01-26T17:23:10.387Z,1.45
2023-01-26T17:29:14.549Z,4.73
2023-01-26T17:35:19.572Z,1.25
2023-01-26T17:41:23.051Z,5.88
2023-01-26T17:47:26.543Z,2.42
2023-01-26T17:53:31.330Z,2.45
2023-01-26T17:59:34.746Z,3.33
2023-01-26T18:05:38.592Z,3.08
2023-01-26T18:11:43.326Z,3.20
2023-01-26T18:17:46.743Z,2.80
2023-01-26T18:23:51.148Z,2.85
2023-01-26T18:29:56.001Z,2.13
2023-01-26T18:36:04.757Z,2.22
2023-01-26T18:42:08.222Z,2.63
2023-01-26T18:48:13.028Z,1.83
2023-01-26T18:54:16.696Z,1.80
2023-01-26T19:00:21.061Z,2.92
2023-01-26T19:06:26.347Z,2.00
2023-01-26T19:12:29.809Z,2.10
2023-01-26T19:18:33.421Z,2.08
2023-01-26T19:24:38.310Z,3.63
2023-01-26T19:30:41.934Z,2.90
2023-01-26T19:36:46.785Z,1.77
2023-01-26T19:42:51.616Z,1.52
2023-01-26T19:48:55.204Z,1.58
2023-01-26T19:54:58.658Z,2.22
2023-01-26T20:01:04.120Z,2.22
2023-01-26T20:07:08.195Z,2.08
2023-01-26T20:13:11.649Z,2.00
2023-01-26T20:19:16.570Z,2.33
2023-01-26T20:25:20.098Z,2.33
2023-01-26T20:31:24.679Z,2.88
2023-01-26T20:37:29.734Z,1.85
2023-01-26T20:43:33.182Z,2.00
2023-01-26T20:49:37.306Z,1.80
2023-01-26T20:55:42.079Z,2.25
2023-01-26T21:01:45.576Z,2.25
2023-01-26T21:07:49.018Z,1.73
2023-01-26T21:13:53.796Z,1.75
2023-01-26T21:19:57.559Z,2.15
2023-01-26T21:26:02.206Z,1.70
2023-01-26T21:32:07.160Z,1.80
2023-01-26T21:38:10.589Z,1.77
2023-01-26T21:44:15.344Z,1.90
2023-01-26T21:50:41.045Z,1.42
2023-01-26T21:56:44.557Z,1.25
2023-01-26T22:02:48.159Z,1.10
2023-01-26T22:08:52.912Z,1.33
2023-01-26T22:14:56.276Z,1.02
2023-01-26T22:20:59.767Z,1.60
2023-01-26T22:27:05.318Z,1.27
2023-01-26T22:33:08.869Z,0.90
2023-01-26T22:39:13.265Z,1.70
2023-01-26T22:45:18.255Z,1.38
2023-01-26T22:51:22.477Z,1.50
2023-01-26T22:57:26.210Z,1.13
2023-01-26T23:03:31.117Z,1.13
2023-01-26T23:09:34.509Z,1.38
2023-01-26T23:15:39.345Z,1.25
2023-01-26T23:21:44.267Z,1.15
2023-01-26T23:27:47.916Z,1.63
2023-01-26T23:33:51.313Z,2.20
2023-01-26T23:39:56.146Z,1.02
2023-01-26T23:45:59.616Z,1.55
2023-01-26T23:52:03.010Z,1.13
2023-01-26T23:58:07.745Z,1.58
